Ordu–Giresun Airport

LTCB · 奥尔杜省, 土耳其

罗盘
风向 的 Ordu–Giresun Airport 10/28
风: 0 kt, 0 beaufort


改变
0 ft 1.000 2.000 3.000 4.000 5.000
Cloud Cloud Cloud Cloud
SCT 700
METAR LTCB 012250Z 00000KT 7000 SCT007 07/06 Q1015 NOSIG

METAR Ordu–Giresun Airport - LTCB/OGU

Ordu–Giresun Airport是,土耳其中的中型机场。 该机场位于纬度40,96685和经度38,08625。 该机场有一条跑道: 10/28. 本场的ICAO机场代码为LTCB。 该机场的IATA代码为OGU。 机场在Ankara FIR中。

该航空气象观测是针对Ordu–Giresun Airport在2024年3月2日 01:50, 当地时间进行的。

机场观察

可变方向的风很小或没有风。

可见度为7 km。

有疏云,零星散落的云朵在700 ft的高度。 没有观察到天花板。

温度和风寒是7 °C。 露点为6 °C,相对湿度为93%。 海平面上的气压为1015 hPa (QNH)。

白天

今天,太阳从07:00升起,在18:18降落。 这适用于Ordu–Giresun Airport,世界夏令时可能有所不同。 当地时间与世界标准时间之间的时差为+3 小时。 当前,没有夏令时有效。

公司介绍

我们没有关于这个机场的公司信息。

体会

到Vliegles.nl去找飞行课程,跳伞和其他飞行体验。 浏览页面,了解Ordu–Giresun Airport附近所有可用的活动。 你也可以使用搜索功能来寻找你所在地附近的特定飞行课程、跳伞或其他飞行体验。

跑道

Id 标题 侧风 逆风 侧风 %
10/28 102°-282°

逆风成分最大的方向会被突出显示,并用于横风计算。 这并不一定意味着这个方向在使用。

乌云

700 ft SCT 疏云,零星散落的云朵

温度 & 天气

温度 7 °C
露点 6 °C
相对湿度 93%
Kp-index 0 (0-9)

白天

日出
07:00 (4:17)
中午
12:39
日落
18:18

小工具

你想在你的网站上有一个关于Ordu–Giresun Airport的当前航空天气(METAR)的小部件吗?

显示HTML代码
?>